Flight Track Log - Related Links

Times and Time Zones

All times are in EDT time to prevent confusion due to time zone crossing. See the DAL268 flight status page for this flight to view local times or setup timezone preferences in your user account.

Time Position Orientation Groundspeed Altitude Reporting Facility
EDT Latitude Longitude Course Direction KTS MPH feet Rate Location/Type
Sat 23:52:41 40.6310 -73.7830 91° East 10 12  Level FlightAware
Sat 23:54:04 40.6320 -73.7830 360° North 2 2 Level FlightAware
Sat 23:55:39 40.6310 -73.7830 180° South Level FlightAware
Sat 23:58:00 40.5833 -73.3777 90° East  Level FlightAware
Sat 23:59:00 40.5644 -73.2085 97° East  Level FlightAware
Sun 00:00:00 40.5500 -73.0338 90° East  Level FlightAware
Sun 00:00:31 40.6300 -73.7830 72° East 16 18  Level FlightAware
Sun 00:01:00 40.5791 -72.8671 72° East  Level FlightAware
Sun 00:01:11 40.6290 -73.7830 180° South 18 21  Level FlightAware
Sun 00:01:37 40.6280 -73.7820 143° Southeast 23 26 Level FlightAware
Sun 00:02:35 40.6290 -73.7800 57° Northeast 24 28 Level FlightAware
Sun 00:02:49 40.6300 -73.7800 360° North 26 30 Level FlightAware
Sun 00:03:15 40.6310 -73.7790 37° Northeast 30 35 Level FlightAware
Sun 00:03:33 40.6320 -73.7780 37° Northeast 32 37 Level FlightAware
Sun 00:04:01 40.6340 -73.7770 21° North 15 17 Level FlightAware
Sun 00:04:29 40.6350 -73.7750 57° Northeast 16 18 Level FlightAware
Sun 00:04:41 40.6360 -73.7750 360° North 15 17 Level FlightAware
Sun 00:05:11 40.6380 -73.7740 21° North 30 35 Level FlightAware
Sun 00:05:31 40.6390 -73.7740 360° North 20 23 Level FlightAware
Sun 00:05:59 40.6400 -73.7740 360° North 18 21 Level FlightAware
Sun 00:06:27 40.6400 -73.7750 270° West 20 23 Level FlightAware
Sun 00:06:39 40.6400 -73.7760 270° West 22 25 Level FlightAware
Sun 00:07:07 40.6410 -73.7770 323° Northwest 32 37 Level FlightAware
Sun 00:07:27 40.6420 -73.7790 303° West 16 18 Level FlightAware
Sun 00:07:45 40.6430 -73.7810 303° West 18 21 Level FlightAware
Sun 00:07:57 40.6430 -73.7820 270° West 16 18 Level FlightAware
Sun 00:08:13 40.6440 -73.7830 323° Northwest 16 18 Level FlightAware
Sun 00:08:25 40.6440 -73.7840 270° West 27 31 Level FlightAware
Sun 00:08:51 40.6450 -73.7850 323° Northwest 11 13 Level FlightAware
Sun 00:11:00 40.5911 -73.4145 108° East  Level FlightAware
Sun 00:12:00 40.5723 -73.2445 123° Southeast  Level FlightAware
Sun 00:12:43 40.6440 -73.7850 97° East  Level FlightAware
Sun 00:13:00 40.5520 -73.0720 97° East  Level FlightAware
Sun 00:13:39 40.6450 -73.7860 323° Northwest 14 16  Level FlightAware
Sun 00:16:00 40.5833 -73.3809 90° East  Level FlightAware
Sun 00:17:00 40.5647 -73.2117 97° East  Level FlightAware
Sun 00:18:00 40.5500 -73.0370 90° East  Level FlightAware
Sun 00:19:00 40.5783 -72.8701 72° East  Level FlightAware
Sun 00:20:00 40.6306 -72.7082 66° East  Level FlightAware
Sun 00:21:00 40.6648 -72.5406 72° East  Level FlightAware
Sun 00:22:00 40.7085 -72.3742 75° East  Level FlightAware
Sun 00:23:00 40.7485 -72.2060 72° East  Level FlightAware
Sun 00:24:00 40.7905 -72.0385 72° East  Level FlightAware
Sun 00:25:00 40.8368 -71.8731 66° East  Level FlightAware
Sun 00:25:47 40.6450 -73.7860 69° East 23 26  Level FlightAware
Sun 00:26:00 40.8723 -71.7055 69° East  Level FlightAware
Sun 00:26:29 40.6460 -73.7850 37° Northeast 19 22  Level FlightAware
Sun 00:27:05 40.6460 -73.7830 90° East 20 23 Level FlightAware
Sun 00:27:27 40.6460 -73.7820 90° East 15 17 Level FlightAware
Sun 00:28:11 40.6460 -73.7810 90° East 13 15 Level FlightAware
Sun 00:28:41 40.6450 -73.7810 180° South 12 14 Level FlightAware
Sun 00:29:57 40.6440 -73.7790 123° Southeast 15 17 Level FlightAware
Sun 00:30:09 40.6440 -73.7780 90° East 14 16 Level FlightAware
Sun 00:30:51 40.6440 -73.7770 90° East 14 16 Level FlightAware
Sun 00:31:53 40.6430 -73.7760 143° Southeast 11 13 10 Level FlightAware
Sun 00:32:11 40.6430 -73.7750 90° East 13 15 11 Level FlightAware
Sun 00:32:55 40.6430 -73.7740 90° East 12 14 12 Level FlightAware
Sun 00:33:05 40.6420 -73.7740 180° South 14 16 13 Level FlightAware
Sun 00:33:33 40.6420 -73.7730 90° East 13 15 13 Level FlightAware
Sun 00:34:59 40.6420 -73.7720 90° East 2 2 14 Level FlightAware
Sun 00:35:53 40.6410 -73.7710 143° Southeast 15 17 17 Level FlightAware
Sun 00:36:21 40.6410 -73.7700 90° East 14 16 20 Level FlightAware
Sun 00:37:09 40.6420 -73.7700 360° North 22 Level FlightAware
Sun 00:38:03 40.6410 -73.7690 143° Southeast 9 10 27 Level FlightAware
Sun 00:38:57 40.6410 -73.7680 90° East 25 29 36 Level FlightAware
Sun 00:39:05 40.6400 -73.7680 180° South 23 26 54 Level FlightAware
Sun 00:40:03 40.6390 -73.7690 217° Southwest 45 52 58 Level FlightAware
Sun 00:40:37 40.6240 -73.7810 211° Southwest 165 190 130 Level FlightAware
Sun 00:40:49 40.6160 -73.7880 214° Southwest 179 206 100 1,650 Climbing FlightAware
Sun 00:41:17 40.5950 -73.8020 207° Southwest 178 205 1,100 1,500 Climbing FlightAware
Sun 00:41:45 40.5740 -73.8160 207° Southwest 208 239 1,500 1,071 Climbing FlightAware
Sun 00:42:13 40.5440 -73.8260 194° South 245 282 2,100 1,256 Climbing FlightAware
Sun 00:42:28 40.5260 -73.8220 170° South 261 300 2,400 1,714 Climbing FlightAware
Sun 00:42:41 40.5120 -73.8140 157° South 271 312 2,900 1,778 Climbing FlightAware
Sun 00:42:55 40.4976 -73.7990 142° Southeast 287 330 3,200 1,615 Climbing FlightAware
Sun 00:43:07 40.4869 -73.7825 130° Southeast 294 338 3,600 2,625 Climbing FlightAware
Sun 00:43:11 40.4837 -73.7760 123° Southeast 295 339 3,900 3,333 Climbing FlightAware
Sun 00:43:16 40.4808 -73.7687 118° Southeast 297 342 4,100 2,400 Climbing FlightAware
Sun 00:43:21 40.4780 -73.7601 113° Southeast 301 346 4,300 1,636 Climbing FlightAware
Sun 00:43:27 40.4756 -73.7505 108° East 306 352 4,400 1,333 Climbing FlightAware
Sun 00:43:30 40.4744 -73.7449 106° East 309 356 4,500 1,714 Climbing FlightAware
Sun 00:43:34 40.4734 -73.7364 99° East 311 358 4,600 2,250 Climbing FlightAware
Sun 00:43:38 40.4731 -73.7299 93° East 311 358 4,800 3,000 Climbing FlightAware
Sun 00:43:42 40.4732 -73.7215 89° East 311 358 5,000 3,000 Climbing FlightAware
Sun 00:43:48 40.4746 -73.7102 81° East 311 358 5,300 3,000 Climbing FlightAware
Sun 00:43:54 40.4768 -73.6993 75° East 311 358 5,600 2,700 Climbing FlightAware
Sun 00:44:08 40.4823 -73.6734 74° East 317 365 6,200 2,160 Climbing FlightAware
Sun 00:44:19 40.4855 -73.6533 78° East 323 372 6,500 2,538 Climbing FlightAware
Sun 00:44:34 40.4882 -73.6238 83° East 323 372 7,300 2,903 Climbing FlightAware
Sun 00:44:50 40.4903 -73.5930 85° East 324 373 8,000 2,516 Climbing FlightAware
Sun 00:45:05 40.4925 -73.5627 85° East 328 377 8,600 2,323 Climbing FlightAware
Sun 00:45:21 40.4957 -73.5312 82° East 332 382 9,200 2,250 Climbing FlightAware
Sun 00:45:37 40.4993 -73.4996 81° East 336 387 9,800 1,826 Climbing FlightAware
Sun 00:46:07 40.5071 -73.4371 81° East 358 412 10,600 1,452 Climbing FlightAware
Sun 00:46:39 40.5166 -73.3637 80° East 388 447 11,300 1,143 Climbing FlightAware
Sun 00:47:10 40.5257 -73.2895 81° East 416 479 11,800 1,143 Climbing FlightAware
Sun 00:47:42 40.5355 -73.2079 81° East 440 506 12,500 1,594 Climbing FlightAware
Sun 00:48:14 40.5456 -73.1212 81° East 452 520 13,500 2,000 Climbing FlightAware
Sun 00:48:45 40.5553 -73.0362 81° East 462 532 14,600 2,095 Climbing FlightAware
Sun 00:49:17 40.5657 -72.9479 81° East 469 540 15,700 1,929 Climbing FlightAware
Sun 00:50:09 40.5830 -72.7980 81° East 480 552 17,300 1,846 Climbing FlightAware
Sun 00:50:22 40.5876 -72.7620 80° East 476 548 17,700 1,756 Climbing FlightAware
Sun 00:51:31 40.6110 -72.5580 81° East 498 573 19,700 1,714 Climbing FlightAware
Sun 00:52:14 40.6260 -72.4270 81° East 507 583 20,900 1,574 Climbing FlightAware
Sun 00:52:32 40.6327 -72.3708 81° East 513 590 21,300 1,347 Climbing FlightAware
Sun 00:53:03 40.6435 -72.2752 82° East 517 595 22,000 1,500 Climbing FlightAware
Sun 00:54:00 40.6634 -72.0963 82° East 525 604 23,500 1,517 Climbing FlightAware
Sun 00:54:30 40.6742 -71.9992 82° East 528 608 24,200 1,279 Climbing FlightAware
Sun 00:55:01 40.6850 -71.9011 82° East 534 615 24,800 136 Climbing FlightAware
Sun 00:55:58 40.7030 -71.7600 80° East 531 611 24,400 -231 Descending FlightAware
Sun 00:56:45 40.7180 -71.6320 81° East 531 611 24,400  Level FlightAware
Sun 00:57:21 40.7300 -71.5340 81° East 531 611 24,400  Level FlightAware
Sun 00:57:57 40.7410 -71.4360 82° East 531 611 24,400  Level FlightAware
Sun 00:58:33 40.7530 -71.3380 81° East 531 611 24,400 4,537 Level FlightAware
Sun 00:59:19 40.7730 -71.0650 84° East 534 615 30,600 4,429 Climbing FlightAware
Sun 00:59:57 40.7840 -70.9610 82° East 534 615 30,600  Level FlightAware
Sun 01:00:33 40.7940 -70.8620 82° East 534 615 30,600  Level FlightAware
Sun 01:01:21 40.8080 -70.7300 82° East 534 615 30,600  Level FlightAware
Sun 01:01:58 40.8190 -70.6280 82° East 534 615 30,600  Level FlightAware
Sun 01:02:34 40.8300 -70.5290 82° East 534 615 30,600  Level FlightAware
Sun 01:03:21 40.8430 -70.4000 82° East 534 615 30,600  Level FlightAware
Sun 01:03:57 40.8540 -70.3010 82° East 534 615 30,600  Level FlightAware
Sun 01:04:48 40.8690 -70.1610 82° East 534 615 30,600  Level FlightAware
Sun 01:05:25 40.8800 -70.0590 82° East 534 615 30,600  Level FlightAware
Sun 01:06:01 40.8900 -69.9600 82° East 534 615 30,600  Level FlightAware
Sun 01:06:37 40.9010 -69.8610 82° East 534 615 30,600  Level FlightAware
Sun 01:07:25 40.9150 -69.7290 82° East 534 615 30,600  Level FlightAware
Sun 01:08:00 40.9250 -69.6330 82° East 534 615 30,600  Level FlightAware
Sun 01:08:46 40.9380 -69.5060 82° East 534 615 30,600 133 Level FlightAware
Sun 01:10:15 40.9706 -68.9722 82° East 541 623 30,900 121 Climbing New Center
Sun 01:11:15 40.9861 -68.7742 84° East 541 623 30,900  Level New Center
Sun 01:12:16 41.0017 -68.5814 84° East 541 623 30,900  Level New Center
Sun 01:13:15 41.0167 -68.3856 84° East 541 623 30,900  Level New Center
Sun 01:14:16 41.0336 -68.1897 83° East 541 623 30,900  Level New Center
Sun 01:15:15 41.0481 -67.9939 84° East 541 623 30,900  Level New Center
Sun 01:16:15 41.0622 -67.7953 85° East 541 623 30,900  Level New Center
Sun 01:17:15 41.0778 -67.5964 84° East 541 623 30,900  Level New Center
Sun 01:18:16 41.0894 -67.4033 85° East 541 623 30,900  Level New Center
Sun 01:19:15 41.1047 -67.2069 84° East 541 623 30,900  Level New Center
Sun 01:20:17 41.1172 -67.0081 85° East 541 623 30,900  Level New Center
Sun 01:21:17 41.1467 -66.8164 78° East 541 623 30,900 36 Level New Center
Sun 01:23:03 41.1167 -67.0000 78° East 548 631 31,000 13 Climbing New Oceanic
Sun 01:29:00 41.3842 -65.2189 79° East 548 631 31,000  Level FlightAware
Sun 01:30:00 41.4122 -65.0201 79° East 548 631 31,000  Level FlightAware
Sun 01:31:00 41.4399 -64.8212 80° East 548 631 31,000  Level FlightAware
Sun 01:32:00 41.4672 -64.6221 80° East 548 631 31,000  Level FlightAware
Sun 01:33:00 41.4942 -64.4228 80° East 548 631 31,000  Level FlightAware
Sun 01:34:00 41.5209 -64.2233 80° East 548 631 31,000  Level FlightAware
Sun 01:35:00 41.5472 -64.0237 80° East 548 631 31,000  Level FlightAware
Sun 01:36:00 41.5731 -63.8239 80° East 548 631 31,000  Level FlightAware
Sun 01:37:00 41.5988 -63.6240 80° East 548 631 31,000  Level FlightAware
Sun 01:38:00 41.6240 -63.4239 80° East 548 631 31,000  Level FlightAware
Sun 01:39:00 41.6489 -63.2236 81° East 548 631 31,000  Level FlightAware
Sun 01:40:00 41.6735 -63.0232 81° East 548 631 31,000  Level FlightAware
Sun 01:41:00 41.6977 -62.8227 81° East 548 631 31,000  Level FlightAware
Sun 01:42:00 41.7216 -62.6220 81° East 548 631 31,000  Level FlightAware
Sun 01:43:00 41.7451 -62.4211 81° East 548 631 31,000  Level FlightAware
Sun 01:44:00 41.7683 -62.2201 81° East 548 631 31,000  Level FlightAware
Sun 01:45:00 41.7911 -62.0190 81° East 548 631 31,000  Level FlightAware
Sun 01:46:00 41.8136 -61.8177 82° East 548 631 31,000  Level FlightAware
Sun 01:47:00 41.8357 -61.6162 82° East 548 631 31,000  Level FlightAware
Sun 01:48:00 41.8575 -61.4147 82° East 548 631 31,000  Level FlightAware
Sun 01:49:00 41.8789 -61.2130 82° East 548 631 31,000  Level FlightAware
Sun 01:50:00 41.9000 -61.0111 82° East 548 631 31,000  Level FlightAware
Sun 01:51:00 41.9207 -60.8092 82° East 548 631 31,000  Level FlightAware
Sun 01:52:00 41.9411 -60.6071 82° East 548 631 31,000  Level FlightAware
Sun 01:53:00 41.9611 -60.4048 82° East 548 631 31,000  Level FlightAware
Sun 01:54:00 41.9807 -60.2025 83° East 548 631 31,000  Level FlightAware
Sun 01:55:00 42.0000 -60.0000 71° East 548 631 31,000  Level FlightAware
Sun 01:56:00 42.0484 -59.8067 71° East 548 631 31,000  Level FlightAware
Sun 01:57:00 42.0964 -59.6131 72° East 548 631 31,000  Level FlightAware
Sun 01:58:00 42.1441 -59.4192 72° East 548 631 31,000  Level FlightAware
Sun 01:59:00 42.1914 -59.2250 72° East 548 631 31,000  Level FlightAware
Sun 02:00:00 42.2385 -59.0305 72° East 548 631 31,000  Level FlightAware
Sun 02:01:00 42.2852 -58.8357 72° East 548 631 31,000  Level FlightAware
Sun 02:02:00 42.3316 -58.6406 72° East 548 631 31,000  Level FlightAware
Sun 02:03:00 42.3777 -58.4453 72° East 548 631 31,000  Level FlightAware
Sun 02:04:00 42.4234 -58.2496 73° East 548 631 31,000  Level FlightAware
Sun 02:05:00 42.4688 -58.0537 73° East 548 631 31,000  Level FlightAware
Sun 02:06:00 42.5138 -57.8575 73° East 548 631 31,000  Level FlightAware
Sun 02:07:00 42.5585 -57.6610 73° East 548 631 31,000  Level FlightAware
Sun 02:07:15 42.0000 -60.0000 71° East 547 629 31,000  Level New Oceanic
Sun 02:08:00 42.6029 -57.4642 73° East 548 631 31,000  Level FlightAware
Sun 02:09:00 42.6470 -57.2672 73° East 548 631 31,000  Level FlightAware
Sun 02:10:00 42.6907 -57.0699 73° East 548 631 31,000  Level FlightAware
Sun 02:11:00 42.7340 -56.8723 73° East 548 631 31,000  Level FlightAware
Sun 02:12:00 42.7771 -56.6744 74° East 548 631 31,000  Level FlightAware
Sun 02:13:00 42.8621 -56.2778 74° East 547 629 31,000  Level FlightAware
Sun 02:14:00 42.9041 -56.0791 74° East 547 629 31,000  Level FlightAware
Sun 02:15:00 42.9458 -55.8801 74° East 547 629 31,000  Level FlightAware
Sun 02:16:00 42.9871 -55.6809 74° East 547 629 31,000  Level FlightAware
Sun 02:17:00 43.0280 -55.4814 74° East 547 629 31,000  Level FlightAware
Sun 02:18:00 43.0687 -55.2816 75° East 547 629 31,000  Level FlightAware
Sun 02:19:00 43.1089 -55.0816 75° East 547 629 31,000  Level FlightAware
Sun 02:20:00 43.1489 -54.8813 75° East 547 629 31,000  Level FlightAware
Sun 02:21:00 43.1884 -54.6807 75° East 547 629 31,000  Level FlightAware
Sun 02:22:00 43.2277 -54.4799 75° East 547 629 31,000  Level FlightAware
Sun 02:23:00 43.2665 -54.2789 75° East 547 629 31,000  Level FlightAware
Sun 02:24:00 43.3050 -54.0775 75° East 547 629 31,000  Level FlightAware
Sun 02:25:00 43.3432 -53.8759 75° East 547 629 31,000  Level FlightAware
Sun 02:26:00 43.3810 -53.6741 76° East 547 629 31,000  Level FlightAware
Sun 02:27:00 43.4185 -53.4720 76° East 547 629 31,000  Level FlightAware
Sun 02:28:00 43.4556 -53.2697 76° East 547 629 31,000  Level FlightAware
Sun 02:29:00 43.4923 -53.0671 76° East 547 629 31,000  Level FlightAware
Sun 02:30:00 43.5287 -52.8643 76° East 547 629 31,000  Level FlightAware
Sun 02:31:00 43.5647 -52.6612 76° East 547 629 31,000  Level FlightAware
Sun 02:32:00 43.6004 -52.4579 76° East 547 629 31,000  Level FlightAware
Sun 02:33:00 43.6357 -52.2544 77° East 547 629 31,000  Level FlightAware
Sun 02:34:00 43.6707 -52.0506 77° East 547 629 31,000  Level FlightAware
Sun 02:35:00 43.7052 -51.8465 77° East 547 629 31,000  Level FlightAware
Sun 02:36:00 43.7394 -51.6423 77° East 547 629 31,000  Level FlightAware
Sun 02:37:00 43.7733 -51.4378 77° East 547 629 31,000  Level FlightAware
Sun 02:38:00 43.8068 -51.2331 77° East 547 629 31,000  Level FlightAware
Sun 02:39:00 43.8399 -51.0281 77° East 547 629 31,000  Level FlightAware
Sun 02:40:00 43.8727 -50.8229 78° East 547 629 31,000  Level FlightAware
Sun 02:41:00 43.9050 -50.6175 78° East 547 629 31,000  Level FlightAware
Sun 02:42:00 43.9371 -50.4119 78° East 547 629 31,000  Level FlightAware
Sun 02:43:00 43.9687 -50.2061 78° East 547 629 31,000  Level FlightAware
Sun 02:44:00 44.0000 -50.0000 63° Northeast 547 629 31,000  Level FlightAware
Sun 02:45:00 44.0644 -49.8213 63° Northeast 547 629 31,000  Level FlightAware
Sun 02:46:00 44.1285 -49.6422 64° Northeast 547 629 31,000  Level FlightAware
Sun 02:46:31 44.0000 -50.0000 63° Northeast 529 609 31,000  Level New Oceanic
Sun 02:47:00 44.1924 -49.4627 64° Northeast 547 629 31,000  Level FlightAware
Sun 02:48:00 44.2560 -49.2829 64° Northeast 547 629 31,000  Level FlightAware
Sun 02:49:00 44.3192 -49.1026 64° Northeast 547 629 31,000  Level FlightAware
Sun 02:50:00 44.3823 -48.9220 64° Northeast 547 629 31,000  Level FlightAware
Sun 02:51:00 44.4450 -48.7410 64° Northeast 547 629 31,000  Level FlightAware
Sun 02:52:00 44.5170 -48.5316 64° Northeast 529 609 31,000  Level FlightAware
Sun 02:53:00 44.5803 -48.3462 64° Northeast 529 609 31,000  Level FlightAware
Sun 02:54:00 44.6432 -48.1605 65° Northeast 529 609 31,000  Level FlightAware
Sun 02:55:00 44.7059 -47.9743 65° Northeast 529 609 31,000  Level FlightAware
Sun 02:56:00 44.7683 -47.7877 65° Northeast 529 609 31,000  Level FlightAware
Sun 02:57:00 44.8304 -47.6007 65° Northeast 529 609 31,000  Level FlightAware
Sun 02:58:00 44.8922 -47.4134 65° Northeast 529 609 31,000  Level FlightAware
Sun 02:59:00 44.9536 -47.2256 65° Northeast 529 609 31,000  Level FlightAware
Sun 03:00:00 45.0148 -47.0374 65° Northeast 529 609 31,000  Level FlightAware
Sun 03:01:00 45.0756 -46.8488 66° East 529 609 31,000  Level FlightAware
Sun 03:02:00 45.1362 -46.6598 66° East 529 609 31,000  Level FlightAware
Sun 03:03:00 45.1964 -46.4705 66° East 529 609 31,000  Level FlightAware
Sun 03:04:00 45.2563 -46.2807 66° East 529 609 31,000  Level FlightAware
Sun 03:05:00 45.3159 -46.0905 66° East 529 609 31,000  Level FlightAware
Sun 03:06:00 45.3752 -45.8999 66° East 529 609 31,000  Level FlightAware
Sun 03:07:00 45.4342 -45.7089 66° East 529 609 31,000  Level FlightAware
Sun 03:08:00 45.4928 -45.5175 66° East 529 609 31,000  Level FlightAware
Sun 03:09:00 45.5511 -45.3257 67° East 529 609 31,000  Level FlightAware
Sun 03:10:00 45.6091 -45.1336 67° East 529 609 31,000  Level FlightAware
Sun 03:11:00 45.6668 -44.9410 67° East 529 609 31,000  Level FlightAware
Sun 03:12:00 45.7242 -44.7480 67° East 529 609 31,000  Level FlightAware
Sun 03:13:00 45.7812 -44.5547 67° East 529 609 31,000  Level FlightAware
Sun 03:14:00 45.8379 -44.3609 67° East 529 609 31,000  Level FlightAware
Sun 03:15:00 45.8943 -44.1668 67° East 529 609 31,000  Level FlightAware
Sun 03:16:00 45.9503 -43.9722 68° East 529 609 31,000  Level FlightAware
Sun 03:17:00 46.0060 -43.7773 68° East 529 609 31,000  Level FlightAware
Sun 03:18:00 46.0614 -43.5819 68° East 529 609 31,000  Level FlightAware
Sun 03:19:00 46.1165 -43.3862 68° East 529 609 31,000  Level FlightAware
Sun 03:20:00 46.1712 -43.1901 68° East 529 609 31,000  Level FlightAware
Sun 03:21:00 46.2255 -42.9936 68° East 529 609 31,000  Level FlightAware
Sun 03:22:00 46.2796 -42.7967 68° East 529 609 31,000  Level FlightAware
Sun 03:23:00 46.3333 -42.5994 69° East 529 609 31,000  Level FlightAware
Sun 03:24:00 46.3867 -42.4017 69° East 529 609 31,000  Level FlightAware
Sun 03:25:00 46.4397 -42.2037 69° East 529 609 31,000  Level FlightAware
Sun 03:26:00 46.4923 -42.0053 69° East 529 609 31,000  Level FlightAware
Sun 03:27:00 46.5447 -41.8064 69° East 529 609 31,000  Level FlightAware
Sun 03:28:00 46.5967 -41.6072 69° East 529 609 31,000  Level FlightAware
Sun 03:29:00 46.6483 -41.4077 69° East 529 609 31,000  Level FlightAware
Sun 03:30:00 46.6996 -41.2077 70° East 529 609 31,000  Level FlightAware
Sun 03:31:00 46.7505 -41.0074 70° East 529 609 31,000  Level FlightAware
Sun 03:32:00 46.8012 -40.8066 70° East 529 609 31,000  Level FlightAware
Sun 03:33:00 46.8514 -40.6055 70° East 529 609 31,000  Level FlightAware
Sun 03:34:00 46.9013 -40.4041 70° East 529 609 31,000  Level FlightAware
Sun 03:35:00 46.9508 -40.2022 70° East 529 609 31,000  Level FlightAware
Sun 03:36:00 47.0000 -40.0000 78° East 529 609 31,000  Level FlightAware
Sun 03:37:00 47.0296 -39.7960 78° East 529 609 31,000  Level FlightAware
Sun 03:37:51 47.0000 -40.0000 78° East 511 588 31,000  Level ETMS Enhanced
Sun 03:38:00 47.0588 -39.5919 78° East 529 609 31,000  Level FlightAware
Sun 03:39:00 47.0877 -39.3874 78° East 529 609 31,000  Level FlightAware
Sun 03:40:00 47.1162 -39.1828 79° East 529 609 31,000  Level FlightAware
Sun 03:41:00 47.1443 -38.9780 79° East 529 609 31,000  Level FlightAware
Sun 03:42:00 47.1721 -38.7729 79° East 529 609 31,000  Level FlightAware
Sun 03:43:00 47.1995 -38.5676 79° East 511 588 31,000  Level FlightAware
Sun 03:44:00 47.2266 -38.3621 79° East 511 588 31,000  Level FlightAware
Sun 03:45:00 47.2533 -38.1564 79° East 511 588 31,000  Level FlightAware
Sun 03:46:00 47.2796 -37.9506 79° East 511 588 31,000  Level FlightAware
Sun 03:47:00 47.3055 -37.7444 80° East 511 588 31,000  Level FlightAware
Sun 03:48:00 47.3311 -37.5381 80° East 511 588 31,000  Level FlightAware
Sun 03:49:00 47.3563 -37.3316 80° East 511 588 31,000  Level FlightAware
Sun 03:50:00 47.3811 -37.1249 80° East 511 588 31,000  Level FlightAware
Sun 03:51:00 47.4055 -36.9180 80° East 511 588 31,000  Level FlightAware
Sun 03:52:00 47.4296 -36.7110 80° East 511 588 31,000  Level FlightAware
Sun 03:53:00 47.4533 -36.5037 80° East 511 588 31,000  Level FlightAware
Sun 03:54:00 47.4767 -36.2962 81° East 511 588 31,000  Level FlightAware
Sun 03:55:00 47.4996 -36.0886 81° East 511 588 31,000  Level FlightAware
Sun 03:56:00 47.5222 -35.8808 81° East 511 588 31,000  Level FlightAware
Sun 03:57:00 47.5444 -35.6728 81° East 511 588 31,000  Level FlightAware
Sun 03:58:00 47.5662 -35.4646 81° East 511 588 31,000  Level FlightAware
Sun 03:59:00 47.5877 -35.2562 81° East 511 588 31,000  Level FlightAware
Sun 04:00:00 47.6088 -35.0477 82° East 511 588 31,000  Level FlightAware
Sun 04:01:00 47.6295 -34.8391 82° East 511 588 31,000  Level FlightAware
Sun 04:02:00 47.6498 -34.6302 82° East 511 588 31,000  Level FlightAware
Sun 04:03:00 47.6697 -34.4212 82° East 511 588 31,000  Level FlightAware
Sun 04:04:00 47.6893 -34.2121 82° East 511 588 31,000  Level FlightAware
Sun 04:05:00 47.7085 -34.0027 82° East 511 588 31,000  Level FlightAware
Sun 04:06:00 47.7273 -33.7933 82° East 511 588 31,000  Level FlightAware
Sun 04:07:00 47.7457 -33.5836 83° East 511 588 31,000  Level FlightAware
Sun 04:08:00 47.7637 -33.3739 83° East 511 588 31,000  Level FlightAware
Sun 04:09:00 47.7814 -33.1640 83° East 511 588 31,000  Level FlightAware
Sun 04:10:00 47.7987 -32.9539 83° East 511 588 31,000  Level FlightAware
Sun 04:11:00 47.8156 -32.7437 83° East 511 588 31,000  Level FlightAware
Sun 04:12:00 47.8321 -32.5334 83° East 511 588 31,000  Level FlightAware
Sun 04:13:00 47.8482 -32.3229 84° East 511 588 31,000  Level FlightAware
Sun 04:14:00 47.8639 -32.1123 84° East 511 588 31,000  Level FlightAware
Sun 04:15:00 47.8793 -31.9016 84° East 511 588 31,000  Level FlightAware
Sun 04:16:00 47.8942 -31.6908 84° East 511 588 31,000  Level FlightAware
Sun 04:17:00 47.9088 -31.4798 84° East 511 588 31,000  Level FlightAware
Sun 04:18:00 47.9230 -31.2687 84° East 511 588 31,000  Level FlightAware
Sun 04:19:00 47.9368 -31.0576 85° East 511 588 31,000  Level FlightAware
Sun 04:20:00 47.9502 -30.8463 85° East 511 588 31,000  Level FlightAware
Sun 04:21:00 47.9632 -30.6348 85° East 511 588 31,000  Level FlightAware
Sun 04:22:00 47.9759 -30.4233 85° East 511 588 31,000  Level FlightAware
Sun 04:23:00 47.9881 -30.2117 85° East 511 588 31,000  Level FlightAware
Sun 04:24:00 47.9997 -30.0046 85° East  Level FlightAware
Sun 04:25:00 48.0107 -29.7974 85° East  Level FlightAware
Sun 04:26:00 48.0081 -29.8018 86° East  Level FlightAware
Sun 04:27:00 48.0162 -29.5942 87° East  Level FlightAware
Sun 04:27:00 48.0000 -30.0000 86° East 501 577 31,000  Level ETMS Enhanced
Sun 04:28:00 48.0239 -29.3866 87° East  Level FlightAware
Sun 04:29:00 48.0312 -29.1790 87° East  Level FlightAware
Sun 04:30:00 48.0382 -28.9712 87° East  Level FlightAware
Sun 04:31:00 48.0447 -28.7635 87° East  Level FlightAware
Sun 04:32:00 48.0509 -28.5556 87° East  Level FlightAware
Sun 04:33:00 48.0450 -28.7542 86° East  Level FlightAware
Sun 04:34:00 48.0512 -28.5464 87° East  Level FlightAware
Sun 04:35:00 48.0570 -28.3385 88° East  Level FlightAware
Sun 04:36:00 48.0625 -28.1306 88° East  Level FlightAware
Sun 04:37:00 48.0675 -27.9226 88° East  Level FlightAware
Sun 04:38:00 48.0722 -27.7146 88° East  Level FlightAware
Sun 04:39:00 48.0765 -27.5065 88° East  Level FlightAware
Sun 04:40:00 48.0805 -27.2985 88° East  Level FlightAware
Sun 04:41:00 48.0840 -27.0904 88° East  Level FlightAware
Sun 04:42:00 48.0872 -26.8822 89° East  Level FlightAware
Sun 04:43:00 48.0900 -26.6741 89° East  Level FlightAware
Sun 04:44:00 48.0925 -26.4659 89° East  Level FlightAware
Sun 04:45:00 48.0945 -26.2577 89° East  Level FlightAware
Sun 04:46:00 48.0962 -26.0495 89° East  Level FlightAware
Sun 04:47:00 48.0975 -25.8413 89° East  Level FlightAware
Sun 04:48:00 48.0985 -25.6330 90° East  Level FlightAware
Sun 04:49:00 48.0990 -25.4248 90° East  Level FlightAware
Sun 04:50:00 48.0992 -25.2166 90° East  Level FlightAware
Sun 04:51:00 48.0990 -25.0083 90° East  Level FlightAware
Sun 04:52:00 48.0984 -24.8001 90° East  Level FlightAware
Sun 04:53:00 48.0975 -24.5918 90° East  Level FlightAware
Sun 04:54:00 48.0961 -24.3836 90° East  Level FlightAware
Sun 04:55:00 48.0945 -24.1754 91° East  Level FlightAware
Sun 04:56:00 48.0924 -23.9672 91° East  Level FlightAware
Sun 04:57:00 48.0899 -23.7590 91° East  Level FlightAware
Sun 04:58:00 48.0871 -23.5509 91° East  Level FlightAware
Sun 04:59:00 48.0839 -23.3427 91° East  Level FlightAware
Sun 05:00:00 48.0803 -23.1346 91° East  Level FlightAware
Sun 05:01:00 48.0764 -22.9266 92° East  Level FlightAware
Sun 05:02:00 48.0720 -22.7185 92° East  Level FlightAware
Sun 05:03:00 48.0673 -22.5105 92° East  Level FlightAware
Sun 05:04:00 48.0636 -22.3025 91° East  Level FlightAware
Sun 05:05:00 48.0598 -22.0945 92° East  Level FlightAware
Sun 05:06:00 48.0555 -21.8865 92° East  Level FlightAware
Sun 05:07:00 48.0509 -21.6786 92° East  Level FlightAware
Sun 05:08:00 48.0460 -21.4706 92° East  Level FlightAware
Sun 05:09:00 48.0406 -21.2628 92° East  Level FlightAware
Sun 05:10:00 48.0349 -21.0550 92° East  Level FlightAware
Sun 05:11:00 48.0288 -20.8472 92° East  Level FlightAware
Sun 05:12:00 48.0223 -20.6395 93° East  Level FlightAware
Sun 05:13:00 48.0154 -20.4318 93° East  Level FlightAware
Sun 05:14:00 48.0082 -20.2242 93° East  Level FlightAware
Sun 05:15:00 48.0006 -20.0166 93° East  Level FlightAware
Sun 05:16:00 48.0040 -19.8089 88° East  Level FlightAware
Sun 05:17:00 48.0080 -19.6011 88° East  Level FlightAware
Sun 05:18:00 48.0116 -19.3933 88° East  Level FlightAware
Sun 05:19:00 48.0148 -19.1855 89° East  Level FlightAware
Sun 05:20:00 48.0177 -18.9776 89° East  Level FlightAware
Sun 05:21:00 48.0201 -18.7697 89° East  Level FlightAware
Sun 05:22:00 48.0222 -18.5618 89° East  Level FlightAware
Sun 05:23:00 48.0240 -18.3539 89° East  Level FlightAware
Sun 05:24:00 48.0253 -18.1460 89° East  Level FlightAware
Sun 05:25:00 48.0263 -17.9380 90° East  Level FlightAware
Sun 05:26:00 48.0269 -17.7301 90° East  Level FlightAware
Sun 05:27:00 48.0271 -17.5222 90° East  Level FlightAware
Sun 05:28:00 48.0270 -17.3142 90° East  Level FlightAware
Sun 05:29:00 48.0265 -17.1063 90° East  Level FlightAware
Sun 05:30:00 48.0256 -16.8983 90° East  Level FlightAware
Sun 05:31:00 48.0243 -16.6904 90° East  Level FlightAware
Sun 05:32:00 48.0226 -16.4825 91° East  Level FlightAware
Sun 05:33:00 48.0206 -16.2745 91° East  Level FlightAware
Sun 05:34:00 48.0182 -16.0667 91° East  Level FlightAware
Sun 05:35:00 48.0154 -15.8588 91° East  Level FlightAware
Sun 05:36:00 48.0123 -15.6509 91° East  Level FlightAware
Sun 05:37:00 48.0088 -15.4431 91° East  Level FlightAware
Sun 05:38:00 48.0049 -15.2353 92° East  Level FlightAware
Sun 05:39:00 48.0006 -15.0276 92° East  Level FlightAware
Sun 05:40:00 47.9768 -14.8231 101° East  Level FlightAware
Sun 05:41:00 47.9498 -14.6194 101° East  Level FlightAware
Sun 05:42:00 47.9224 -14.4159 101° East  Level FlightAware
Sun 05:43:00 47.8946 -14.2126 101° East  Level FlightAware
Sun 05:44:00 47.8665 -14.0095 102° East  Level FlightAware
Sun 05:45:00 47.8380 -13.8066 102° East  Level FlightAware
Sun 05:46:00 47.8092 -13.6040 102° East  Level FlightAware
Sun 05:47:00 47.7800 -13.4016 102° East  Level FlightAware
Sun 05:48:00 47.7505 -13.1994 102° East  Level FlightAware
Sun 05:49:00 47.7206 -12.9975 102° East  Level FlightAware
Sun 05:50:00 47.6903 -12.7958 102° East  Level FlightAware
Sun 05:51:00 47.6597 -12.5943 103° East  Level FlightAware
Sun 05:52:00 47.6287 -12.3930 103° East  Level FlightAware
Sun 05:53:00 47.5974 -12.1920 103° East  Level FlightAware
Sun 05:54:00 47.5658 -11.9913 103° East  Level FlightAware
Sun 05:55:00 47.5337 -11.7908 103° East  Level FlightAware
Sun 05:56:00 47.5014 -11.5905 103° East  Level FlightAware
Sun 05:57:00 47.4687 -11.3905 104° East  Level FlightAware
Sun 05:58:00 47.4356 -11.1907 104° East  Level FlightAware
Sun 05:59:00 47.4022 -10.9912 104° East  Level FlightAware
Sun 06:00:00 47.3685 -10.7919 104° East  Level FlightAware
Sun 06:01:00 47.3344 -10.5929 104° East  Level FlightAware
Sun 06:02:00 47.2999 -10.3941 104° East  Level FlightAware
Sun 06:03:00 47.2651 -10.1957 104° East  Level FlightAware
Sun 06:04:00 47.2300 -9.9974 105° East  Level FlightAware
Sun 06:05:00 47.1945 -9.7995 105° East  Level FlightAware
Sun 06:06:00 47.1587 -9.6018 105° East  Level FlightAware
Sun 06:07:00 47.1226 -9.4043 105° East  Level FlightAware
Sun 06:08:00 47.0861 -9.2072 105° East  Level FlightAware
Sun 06:09:00 47.0493 -9.0103 105° East  Level FlightAware
Sun 06:10:00 47.0121 -8.8137 105° East  Level FlightAware
Sun 06:11:00 47.0004 -8.6122 90° East  Level FlightAware
Sun 06:12:00 47.0006 -8.4082 90° East  Level FlightAware
Sun 06:12:16 46.8090 -7.5470 90° East 498 573 36,700  Level FlightAware
Sun 06:12:54 46.7940 -7.4300 101° East 501 577 37,000 198 Climbing FlightAware
Sun 06:13:00 47.0005 -8.2043 90° East  Level FlightAware
Sun 06:13:47 46.7760 -7.2800 100° East 501 577 37,000  Level FlightAware
Sun 06:14:23 46.7640 -7.1780 100° East 501 577 37,000 -80 Level FlightAware
Sun 06:15:02 46.7400 -7.0010 101° East 501 577 36,900 -50 Descending FlightAware
Sun 06:16:24 46.7100 -6.7740 101° East 503 579 36,900  Level FlightAware
Sun 06:17:26 46.6780 -6.5240 100° East 507 583 36,900  Level FlightAware
Sun 06:18:10 46.6580 -6.3750 101° East 510 587 36,900  Level FlightAware
Sun 06:18:44 46.6430 -6.2600 101° East 510 587 36,900  Level FlightAware
Sun 06:19:26 46.6240 -6.1130 101° East 510 587 36,900  Level FlightAware
Sun 06:20:06 46.6050 -5.9800 102° East 511 588 36,900  Level FlightAware
Sun 06:20:42 46.5890 -5.8600 101° East 511 588 36,900  Level FlightAware
Sun 06:21:26 46.5680 -5.7100 101° East 512 589 36,900  Level FlightAware
Sun 06:22:06 46.5500 -5.5760 101° East 513 590 36,900  Level FlightAware
Sun 06:22:50 46.5290 -5.4290 102° East 513 590 36,900  Level FlightAware
Sun 06:23:30 46.5100 -5.2940 102° East 513 590 36,900  Level FlightAware
Sun 06:24:14 46.4880 -5.1430 102° East 514 592 36,900  Level FlightAware
Sun 06:24:55 46.4690 -5.0060 101° East 515 593 36,900  Level FlightAware
Sun 06:25:43 46.4450 -4.8430 102° East 515 593 36,900  Level FlightAware
Sun 06:26:27 46.4230 -4.6970 102° East 515 593 36,900  Level FlightAware
Sun 06:27:07 46.4030 -4.5620 102° East 516 594 36,900  Level FlightAware
Sun 06:27:47 46.3830 -4.4270 102° East 516 594 36,900  Level FlightAware
Sun 06:28:27 46.3620 -4.2900 102° East 516 594 36,900  Level FlightAware
Sun 06:29:15 46.3370 -4.1280 103° East 517 595 36,900  Level FlightAware
Sun 06:29:55 46.3170 -3.9950 102° East 516 594 36,900  Level FlightAware
Sun 06:30:39 46.2940 -3.8460 103° East 517 595 36,900  Level FlightAware
Sun 06:31:19 46.2730 -3.7110 103° East 516 594 36,900  Level FlightAware
Sun 06:32:05 46.2490 -3.5590 103° East 515 593 36,900  Level FlightAware
Sun 06:32:45 46.2270 -3.4230 103° East 515 593 36,900  Level FlightAware
Sun 06:33:25 46.2050 -3.2880 103° East 514 592 36,900  Level FlightAware
Sun 06:34:09 46.1820 -3.1440 103° East 512 589 36,900  Level FlightAware
Sun 06:34:43 46.1630 -3.0290 103° East 510 587 36,900  Level FlightAware
Sun 06:35:19 46.1450 -2.9140 103° East 509 586 36,900  Level FlightAware
Sun 06:36:03 46.1200 -2.7650 104° East 508 585 36,900  Level FlightAware
Sun 06:36:49 46.0960 -2.6190 103° East 508 585 36,900  Level FlightAware
Sun 06:37:33 46.0710 -2.4720 104° East 508 585 36,900  Level FlightAware
Sun 06:38:13 46.0480 -2.3380 104° East 507 583 36,900  Level FlightAware
Sun 06:38:57 46.0240 -2.1960 104° East 506 582 36,900  Level FlightAware
Sun 06:39:37 46.0020 -2.0640 103° East 506 582 36,900  Level FlightAware
Sun 06:40:19 45.9790 -1.9310 104° East 505 581 36,900  Level FlightAware
Sun 06:41:01 45.9540 -1.7890 104° East 504 580 36,900  Level FlightAware
Sun 06:41:38 45.9350 -1.6840 105° East 505 581 36,900  Level FlightAware
Sun 06:42:23 45.9080 -1.5300 104° East 505 581 36,900  Level FlightAware
Sun 06:43:18 45.8800 -1.3650 104° East 506 582 36,900  Level FlightAware
Sun 06:43:58 45.8640 -1.2320 100° East 507 583 36,900  Level FlightAware
Sun 06:44:43 45.8490 -1.0760 98° East 506 582 36,900  Level FlightAware
Sun 06:45:23 45.8360 -0.9390 98° East 508 585 36,900  Level FlightAware
Sun 06:46:08 45.8220 -0.8000 98° East 509 586 36,900  Level FlightAware
Sun 06:46:43 45.8130 -0.6730 96° East 508 585 36,900  Level FlightAware
Sun 06:47:23 45.8150 -0.5350 89° East 508 585 36,900  Level FlightAware
Sun 06:48:08 45.8180 -0.3810 88° East 508 585 36,900  Level FlightAware
Sun 06:48:38 45.8190 -0.2790 89° East 505 581 36,900 80 Level FlightAware
Sun 06:49:23 45.8220 -0.1380 88° East 504 580 37,000  Climbing FlightAware
Sun 06:50:08 45.8240 0.0180 89° East 504 580 36,900 -80 Descending FlightAware
Sun 06:50:38 45.8250 0.1130 89° East 503 579 36,900  Level FlightAware
Sun 06:51:23 45.8270 0.2660 89° East 503 579 36,900  Level FlightAware
Sun 06:52:03 45.8280 0.3980 89° East 504 580 36,900 71 Level FlightAware
Sun 06:52:48 45.8300 0.5480 89° East 505 581 37,000  Climbing FlightAware
Sun 06:53:28 45.8320 0.6850 89° East 506 582 36,900 -75 Descending FlightAware
Sun 06:54:08 45.8330 0.8210 89° East 506 582 36,900  Level FlightAware
Sun 06:54:53 45.8250 0.9640 95° East 510 587 36,900  Level FlightAware
Sun 06:55:29 45.8080 1.0730 103° East 513 590 36,900 75 Level FlightAware
Sun 06:56:13 45.7810 1.2260 104° East 511 588 37,000  Climbing FlightAware
Sun 06:56:48 45.7620 1.3310 105° East 510 587 36,900 -75 Descending FlightAware
Sun 06:57:33 45.7320 1.4930 105° East 510 587 36,900  Level FlightAware
Sun 06:58:17 45.7050 1.6410 105° East 510 587 36,900  Level FlightAware
Sun 06:58:55 45.6810 1.7650 105° East 510 587 36,900  Level FlightAware
Sun 06:59:41 45.6530 1.9160 105° East 510 587 36,900  Level FlightAware
Sun 07:01:05 45.6070 2.1570 105° East 507 583 36,900  Level FlightAware
Sun 07:02:14 45.5590 2.4040 105° East 505 581 36,900  Level FlightAware
Sun 07:02:58 45.5310 2.5500 105° East 503 579 36,900  Level FlightAware
Sun 07:03:36 45.5070 2.6720 106° East 502 578 36,900  Level FlightAware
Sun 07:04:19 45.4820 2.8030 105° East 502 578 36,900  Level FlightAware
Sun 07:04:51 45.4610 2.9100 106° East 503 579 36,900  Level FlightAware
Sun 07:05:41 45.4290 3.0680 106° East 504 580 36,900  Level FlightAware
Sun 07:06:15 45.4070 3.1770 106° East 505 581 36,900  Level FlightAware
Sun 07:07:07 45.3750 3.3430 105° East 510 587 36,900  Level FlightAware
Sun 07:07:47 45.3490 3.4680 106° East 512 589 36,900  Level FlightAware
Sun 07:08:27 45.3210 3.6040 106° East 513 590 36,900  Level FlightAware
Sun 07:09:09 45.2940 3.7330 107° East 517 595 36,900  Level FlightAware
Sun 07:09:55 45.2450 3.8790 115° Southeast 523 602 36,900  Level FlightAware
Sun 07:10:35 45.2010 4.0030 117° Southeast 524 603 36,900  Level FlightAware
Sun 07:11:45 45.1150 4.2140 120° Southeast 529 609 36,900  Level FlightAware
Sun 07:12:27 45.0600 4.3330 123° Southeast 531 611 36,900  Level FlightAware
Sun 07:13:11 45.0010 4.4560 124° Southeast 533 613 36,900  Level FlightAware
Sun 07:13:43 44.9540 4.5520 125° Southeast 533 613 36,900  Level FlightAware
Sun 07:14:25 44.8940 4.6750 125° Southeast 534 615 36,900  Level FlightAware
Sun 07:15:07 44.8370 4.7940 124° Southeast 534 615 36,900  Level FlightAware
Sun 07:15:51 44.7760 4.9210 124° Southeast 534 615 36,900  Level FlightAware
Sun 07:16:31 44.7220 5.0330 124° Southeast 535 616 36,900  Level FlightAware
Sun 07:17:11 44.6650 5.1500 124° Southeast 535 616 36,900  Level FlightAware
Sun 07:17:55 44.6040 5.2760 124° Southeast 535 616 36,900  Level FlightAware
Sun 07:18:39 44.5430 5.4040 124° Southeast 535 616 36,900  Level FlightAware
Sun 07:19:17 44.4910 5.5120 124° Southeast 534 615 36,900  Level FlightAware
Sun 07:20:01 44.4300 5.6360 125° Southeast 531 611 36,900  Level FlightAware
Sun 07:20:43 44.3710 5.7580 124° Southeast 531 611 36,900  Level FlightAware
Sun 07:21:27 44.3090 5.8800 125° Southeast 529 609 36,900  Level FlightAware
Sun 07:22:07 44.2590 5.9890 123° Southeast 525 604 36,900  Level FlightAware
Sun 07:22:51 44.2020 6.1200 121° Southeast 523 602 36,900  Level FlightAware
Sun 07:23:31 44.1520 6.2310 122° Southeast 520 598 36,900  Level FlightAware
Sun 07:24:15 44.0940 6.3580 122° Southeast 517 595 36,900  Level FlightAware
Sun 07:24:55 44.0420 6.4690 123° Southeast 515 593 36,900 79 Level FlightAware
Sun 07:25:31 43.9960 6.5680 123° Southeast 512 589 37,000  Climbing FlightAware
Sun 07:26:21 43.9340 6.7030 122° Southeast 512 589 36,900 -67 Descending FlightAware
Sun 07:27:01 43.8800 6.8180 123° Southeast 511 588 36,900  Level FlightAware
Sun 07:27:45 43.8240 6.9390 123° Southeast 511 588 36,900  Level FlightAware
Sun 07:28:25 43.7720 7.0490 123° Southeast 510 587 36,900  Level FlightAware
Sun 07:29:03 43.7260 7.1490 122° Southeast 511 588 36,900  Level FlightAware
Sun 07:29:49 43.6710 7.2800 120° Southeast 508 585 36,900  Level FlightAware
Sun 07:30:43 43.6340 7.3990 113° Southeast 507 583 36,900  Level FlightAware
Sun 07:31:13 43.5910 7.5320 114° Southeast 507 583 36,900 69 Level FlightAware
Sun 07:32:10 43.5370 7.6980 114° Southeast 507 583 37,000  Climbing FlightAware
Sun 07:32:56 43.4850 7.8290 119° Southeast 508 585 36,900 -69 Descending FlightAware
Sun 07:33:37 43.4380 7.9420 120° Southeast 506 582 36,900  Level FlightAware
Sun 07:34:16 43.3930 8.0480 120° Southeast 505 581 36,900  Level FlightAware
Sun 07:34:58 43.3410 8.1680 121° Southeast 506 582 36,900  Level FlightAware
Sun 07:35:43 43.2890 8.2890 121° Southeast 507 583 36,900  Level FlightAware
Sun 07:36:19 43.2450 8.3900 121° Southeast 507 583 36,900  Level FlightAware
Sun 07:37:06 43.1880 8.5210 121° Southeast 504 580 36,900 68 Level FlightAware
Sun 07:37:47 43.1390 8.6310 121° Southeast 502 578 37,000  Climbing FlightAware
Sun 07:38:30 43.0870 8.7510 121° Southeast 502 578 36,900  Descending FlightAware
Sun 07:39:12 43.0360 8.8670 121° Southeast 501 577 37,000  Climbing FlightAware
Sun 07:39:55 42.9850 8.9830 121° Southeast 502 578 36,900 -70 Descending FlightAware
Sun 07:40:38 42.9350 9.0940 122° Southeast 502 578 36,900 72 Level FlightAware
Sun 07:41:18 42.8850 9.2070 121° Southeast 502 578 37,000  Climbing FlightAware
Sun 07:42:00 42.8350 9.3200 121° Southeast 503 579 36,900 -70 Descending FlightAware
Sun 07:42:44 42.7810 9.4400 121° Southeast 502 578 36,900  Level FlightAware
Sun 07:43:20 42.7370 9.5370 122° Southeast 502 578 36,900  Level FlightAware
Sun 07:43:58 42.6920 9.6380 121° Southeast 501 577 36,900  Level FlightAware
Sun 07:44:39 42.6410 9.7500 122° Southeast 499 574 36,900  Level FlightAware
Sun 07:45:19 42.5940 9.8560 121° Southeast 498 573 36,900  Level FlightAware
Sun 07:45:56 42.5550 9.9590 117° Southeast 497 572 36,900  Level FlightAware
Sun 07:46:40 42.5130 10.0820 115° Southeast 495 570 36,900 71 Level FlightAware
Sun 07:47:20 42.4750 10.1960 114° Southeast 495 570 37,000  Climbing FlightAware
Sun 07:48:06 42.4320 10.3270 114° Southeast 496 571 36,900 -71 Descending FlightAware
Sun 07:48:44 42.3960 10.4340 114° Southeast 496 571 36,900  Level FlightAware
Sun 07:49:28 42.3550 10.5580 114° Southeast 493 567 36,900  Level FlightAware
Sun 07:50:10 42.3150 10.6750 115° Southeast 491 565 36,900  Level FlightAware
Sun 07:50:46 42.2820 10.7730 114° Southeast 491 565 36,900  Level FlightAware
Sun 07:51:26 42.2430 10.8880 115° Southeast 490 564 36,900 71 Level FlightAware
Sun 07:52:10 42.1990 11.0070 116° Southeast 489 563 37,000  Climbing FlightAware
Sun 07:52:50 42.1450 11.1040 127° Southeast 488 562 36,900 -71 Descending FlightAware
Sun 07:53:34 42.0800 11.2070 130° Southeast 488 562 36,900  Level FlightAware
Sun 07:54:14 42.0210 11.3000 130° Southeast 488 562 36,900  Level FlightAware
Sun 07:54:58 41.9570 11.4010 130° Southeast 491 565 36,900  Level FlightAware
Sun 07:55:38 41.8990 11.4930 130° Southeast 492 566 36,900  Level FlightAware
Sun 07:56:20 41.8350 11.5930 131° Southeast 495 570 36,900  Level FlightAware
Sun 07:57:04 41.7700 11.6940 131° Southeast 494 568 36,900  Level FlightAware
Sun 07:57:46 41.7070 11.7930 130° Southeast 493 567 36,900  Level FlightAware
Sun 07:58:27 41.6500 11.8810 131° Southeast 493 567 36,900  Level FlightAware
Sun 07:59:08 41.5850 11.9810 131° Southeast 492 566 36,900  Level FlightAware
Sun 07:59:42 41.5350 12.0580 131° Southeast 489 563 36,900  Level FlightAware
Sun 08:00:24 41.4720 12.1550 131° Southeast 488 562 36,900  Level FlightAware
Sun 08:01:06 41.4110 12.2490 131° Southeast 487 560 36,900 70 Level FlightAware
Sun 08:01:50 41.3460 12.3490 131° Southeast 487 560 37,000  Climbing FlightAware
Sun 08:02:30 41.2860 12.4390 132° Southeast 488 562 36,900  Descending FlightAware
Sun 08:03:14 41.2200 12.5390 131° Southeast 489 563 37,000  Climbing FlightAware
Sun 08:03:54 41.1610 12.6280 131° Southeast 490 564 36,900 -71 Descending FlightAware
Sun 08:04:38 41.1070 12.7380 123° Southeast 490 564 36,900  Level FlightAware
Sun 08:05:18 41.0610 12.8430 120° Southeast 490 564 36,900  Level FlightAware
Sun 08:06:02 41.0070 12.9570 122° Southeast 489 563 36,900  Level FlightAware
Sun 08:06:42 40.9600 13.0560 122° Southeast 488 562 36,900  Level FlightAware
Sun 08:07:22 40.9150 13.1600 120° Southeast 488 562 36,900  Level FlightAware
Sun 08:08:08 40.8620 13.2790 120° Southeast 489 563 36,900  Level FlightAware
Sun 08:08:48 40.8160 13.3800 121° Southeast 489 563 36,900  Level FlightAware
Sun 08:09:32 40.7660 13.4890 121° Southeast 488 562 36,900  Level FlightAware
Sun 08:10:12 40.7180 13.5950 121° Southeast 488 562 36,900  Level FlightAware
Sun 08:10:56 40.6670 13.7060 121° Southeast 488 562 36,900  Level FlightAware
Sun 08:11:53 40.6090 13.8320 121° Southeast 488 562 36,900  Level FlightAware
Sun 08:12:42 40.5450 13.9710 121° Southeast 487 560 36,900  Level FlightAware
Sun 08:13:18 40.5020 14.0630 122° Southeast 487 560 36,900  Level FlightAware
Sun 08:14:00 40.4500 14.1740 122° Southeast 489 563 36,900  Level FlightAware
Sun 08:14:40 40.4040 14.2750 121° Southeast 489 563 36,900  Level FlightAware
Sun 08:16:02 40.3070 14.4830 121° Southeast 491 565 36,900  Level FlightAware
Sun 08:16:52 40.2470 14.6100 122° Southeast 493 567 36,900  Level FlightAware
Sun 08:17:36 40.1940 14.7220 122° Southeast 494 568 36,900  Level FlightAware
Sun 08:18:14 40.1480 14.8190 122° Southeast 496 571 36,900  Level FlightAware
Sun 08:18:59 40.0950 14.9310 122° Southeast 497 572 36,900  Level FlightAware
Sun 08:19:38 40.0470 15.0310 122° Southeast 496 571 36,900  Level FlightAware
Sun 08:20:20 39.9950 15.1400 122° Southeast 495 570 36,900  Level FlightAware
Sun 08:20:57 39.9510 15.2330 122° Southeast 495 570 36,900  Level FlightAware
Sun 08:21:36 39.9030 15.3310 123° Southeast 494 568 36,900  Level FlightAware
Sun 08:22:19 39.8520 15.4370 122° Southeast 493 567 36,900  Level FlightAware
Sun 08:23:02 39.7990 15.5450 123° Southeast 492 566 36,900  Level FlightAware
Sun 08:23:44 39.7530 15.6570 118° Southeast 492 566 36,900  Level FlightAware
Sun 08:24:28 39.7120 15.7740 114° Southeast 492 566 36,900  Level FlightAware
Sun 08:25:12 39.6710 15.8940 114° Southeast 493 567 36,900  Level FlightAware
Sun 08:25:52 39.6340 16.0020 114° Southeast 494 568 36,900  Level FlightAware
Sun 08:26:35 39.5940 16.1180 114° Southeast 496 571 36,900  Level FlightAware
Sun 08:27:16 39.5560 16.2290 114° Southeast 499 574 36,900  Level FlightAware
Sun 08:27:56 39.5170 16.3420 114° Southeast 501 577 36,900  Level FlightAware
Sun 08:28:40 39.4760 16.4600 114° Southeast 503 579 36,900 73 Level FlightAware
Sun 08:29:18 39.4400 16.5660 114° Southeast 506 582 37,000  Climbing FlightAware
Sun 08:29:56 39.4030 16.6720 114° Southeast 511 588 36,900 -75 Descending FlightAware
Sun 08:30:38 39.3620 16.7880 115° Southeast 513 590 36,900  Level FlightAware
Sun 08:31:16 39.3240 16.8950 115° Southeast 512 589 36,900  Level FlightAware
Sun 08:32:00 39.2810 17.0160 115° Southeast 513 590 36,900  Level FlightAware
Sun 08:32:54 39.2410 17.1310 114° Southeast 513 590 36,900  Level FlightAware
Sun 08:33:42 39.1920 17.2660 115° Southeast 515 593 36,900 62 Level FlightAware
Sun 08:34:31 39.1420 17.4070 115° Southeast 515 593 37,000  Climbing FlightAware
Sun 08:35:11 39.1010 17.5190 115° Southeast 517 595 36,900 -74 Descending FlightAware
Sun 08:35:52 39.0640 17.6220 115° Southeast 517 595 36,900  Level FlightAware
Sun 08:36:31 39.0200 17.7420 115° Southeast 517 595 36,900  Level FlightAware
Sun 08:37:17 38.9740 17.8690 115° Southeast 518 596 36,900  Level FlightAware
Sun 08:37:57 38.9350 17.9750 115° Southeast 519 597 36,900  Level FlightAware
Sun 08:38:37 38.8940 18.0880 115° Southeast 519 597 36,900  Level FlightAware
Sun 08:39:19 38.8520 18.2000 116° Southeast 521 600 36,900  Level FlightAware
Sun 08:40:07 38.7990 18.3420 116° Southeast 522 601 36,900  Level FlightAware
Sun 08:40:48 38.7610 18.4470 115° Southeast 522 601 36,900  Level FlightAware
Sun 08:41:27 38.7190 18.5590 116° Southeast 522 601 36,900  Level FlightAware
Sun 08:42:12 38.6700 18.6870 116° Southeast 523 602 36,900  Level FlightAware
Sun 08:42:53 38.6270 18.8020 116° Southeast 524 603 36,900  Level FlightAware
Sun 08:43:32 38.5860 18.9100 116° Southeast 524 603 36,900  Level FlightAware
Sun 08:44:14 38.5340 19.0610 114° Southeast 527 606 36,900  Level FlightAware
Sun 08:44:59 38.4970 19.1980 109° East 530 610 36,900  Level FlightAware
Sun 08:45:39 38.4630 19.3140 110° East 530 610 36,900  Level FlightAware
Sun 08:46:25 38.4220 19.4470 111° Southeast 532 612 36,900  Level FlightAware
Sun 08:47:04 38.3870 19.5620 111° Southeast 534 615 36,900  Level FlightAware
Sun 08:47:45 38.3500 19.6820 111° Southeast 537 618 36,900  Level FlightAware
Sun 08:48:30 38.3100 19.8140 111° Southeast 538 619 36,900  Level FlightAware
Sun 08:49:14 38.2700 19.9440 111° Southeast 539 620 36,900  Level FlightAware
Sun 08:49:49 38.2370 20.0490 112° Southeast 539 620 36,900  Level FlightAware
Sun 08:50:29 38.2010 20.1670 111° Southeast 539 620 36,900  Level FlightAware
Sun 08:51:10 38.1640 20.2840 112° Southeast 539 620 36,900  Level FlightAware
Sun 08:51:56 38.1230 20.4170 111° Southeast 536 617 36,900  Level FlightAware
Sun 08:52:35 38.0860 20.5350 112° Southeast 535 616 36,900  Level FlightAware
Sun 08:53:14 38.0500 20.6490 112° Southeast 532 612 36,900 71 Level FlightAware
Sun 08:53:59 38.0090 20.7770 112° Southeast 530 610 37,000  Climbing FlightAware
Sun 08:54:39 37.9710 20.8950 112° Southeast 528 608 36,900 -66 Descending FlightAware
Sun 08:55:30 37.9240 21.0420 112° Southeast 529 609 36,900  Level FlightAware
Sun 08:56:11 37.8870 21.1580 112° Southeast 530 610 36,900  Level FlightAware
Sun 08:56:52 37.8520 21.2660 112° Southeast 534 615 36,900  Level FlightAware
Sun 08:57:32 37.8100 21.3970 112° Southeast 535 616 36,900  Level FlightAware
Sun 08:58:12 37.7720 21.5110 113° Southeast 537 618 36,900  Level FlightAware
Sun 08:58:54 37.7330 21.6320 112° Southeast 537 618 36,900  Level FlightAware
Sun 08:59:38 37.6900 21.7620 113° Southeast 537 618 36,900  Level FlightAware
Sun 09:00:20 37.6500 21.8830 113° Southeast 538 619 36,900  Level FlightAware
Sun 09:01:02 37.6090 22.0060 113° Southeast 541 623 36,900  Level FlightAware
Sun 09:01:42 37.5710 22.1210 113° Southeast 541 623 36,900  Level FlightAware
Sun 09:02:22 37.5320 22.2390 113° Southeast 542 624 36,900  Level FlightAware
Sun 09:02:54 37.5010 22.3300 113° Southeast 544 626 36,900  Level FlightAware
Sun 09:03:42 37.4540 22.4710 113° Southeast 545 627 36,900  Level FlightAware
Sun 09:04:18 37.4180 22.5760 113° Southeast 545 627 36,900  Level FlightAware
Sun 09:04:54 37.3820 22.6820 113° Southeast 544 626 36,900  Level FlightAware
Sun 09:05:38 37.3390 22.8100 113° Southeast 543 625 36,900  Level FlightAware
Sun 09:06:18 37.3000 22.9240 113° Southeast 543 625 36,900  Level FlightAware
Sun 09:06:54 37.2640 23.0280 113° Southeast 543 625 36,900  Level FlightAware
Sun 09:07:38 37.2200 23.1570 113° Southeast 542 624 36,900  Level FlightAware
Sun 09:08:18 37.1800 23.2730 113° Southeast 541 623 36,900  Level FlightAware
Sun 09:09:02 37.1370 23.3970 113° Southeast 539 620 36,900  Level FlightAware
Sun 09:09:46 37.0920 23.5260 114° Southeast 538 619 36,900  Level FlightAware
Sun 09:10:24 37.0550 23.6330 113° Southeast 538 619 36,900  Level FlightAware
Sun 09:11:51 36.9690 23.8750 114° Southeast 536 617 36,900  Level FlightAware
Sun 09:12:33 36.9270 23.9960 113° Southeast 536 617 36,900  Level FlightAware
Sun 09:13:15 36.8850 24.1150 114° Southeast 535 616 36,900 71 Level FlightAware
Sun 09:13:57 36.8430 24.2310 114° Southeast 535 616 37,000  Climbing FlightAware
Sun 09:14:33 36.8070 24.3320 114° Southeast 534 615 36,900 -83 Descending FlightAware
Sun 09:15:09 36.7720 24.4300 114° Southeast 534 615 36,900  Level FlightAware
Sun 09:15:57 36.7210 24.5720 114° Southeast 533 613 36,900  Level FlightAware
Sun 09:16:29 36.6890 24.6620 114° Southeast 532 612 36,900  Level FlightAware
Sun 09:17:09 36.6480 24.7750 114° Southeast 531 611 36,900 70 Level FlightAware
Sun 09:17:55 36.6020 24.9020 114° Southeast 530 610 37,000  Climbing FlightAware
Sun 09:18:21 36.5760 24.9730 114° Southeast 529 609 36,900 -97 Descending FlightAware
Sun 09:18:57 36.5390 25.0760 114° Southeast 529 609 36,900  Level FlightAware
Sun 09:19:37 36.4990 25.1860 114° Southeast 529 609 36,900  Level FlightAware
Sun 09:20:19 36.4560 25.3020 115° Southeast 529 609 36,900  Level FlightAware
Sun 09:20:55 36.4200 25.4000 115° Southeast 529 609 36,900  Level FlightAware
Sun 09:21:39 36.3740 25.5240 115° Southeast 529 609 36,900  Level FlightAware
Sun 09:22:19 36.3340 25.6330 114° Southeast 530 610 36,900  Level FlightAware
Sun 09:23:03 36.2880 25.7550 115° Southeast 530 610 36,900  Level FlightAware
Sun 09:23:41 36.2490 25.8600 115° Southeast 529 609 36,900  Level FlightAware
Sun 09:24:27 36.2020 25.9860 115° Southeast 529 609 36,900  Level FlightAware
Sun 09:25:09 36.1590 26.1010 115° Southeast 529 609 36,900  Level FlightAware
Sun 09:25:45 36.1220 26.2010 115° Southeast 530 610 36,900  Level FlightAware
Sun 09:26:27 36.0780 26.3160 115° Southeast 528 608 36,900  Level FlightAware
Sun 09:27:07 36.0370 26.4240 115° Southeast 526 605 36,900  Level FlightAware
Sun 09:27:47 35.9950 26.5340 115° Southeast 525 604 36,900  Level FlightAware
Sun 09:28:33 35.9480 26.6570 115° Southeast 525 604 36,900  Level FlightAware
Sun 09:29:13 35.9060 26.7670 115° Southeast 525 604 36,900  Level FlightAware
Sun 09:29:51 35.8690 26.8650 115° Southeast 525 604 36,900  Level FlightAware
Sun 09:30:53 35.8020 27.0370 116° Southeast 525 604 36,900  Level FlightAware
Sun 09:31:52 35.7470 27.1800 115° Southeast 524 603 36,900  Level FlightAware
Sun 09:32:27 35.7170 27.2610 115° Southeast 524 603 36,900  Level FlightAware
Sun 09:35:00 35.5484 27.6457 118° Southeast  Level Estimated
Sun 09:35:37 35.5060 27.7950 118° Southeast 517 595 36,900  Level FlightAware
Sun 09:36:18 35.4660 27.8970 116° Southeast 517 595 36,900  Level FlightAware
Sun 09:36:55 35.4310 27.9860 116° Southeast 517 595 36,900  Level FlightAware
Sun 09:37:40 35.3770 28.1210 116° Southeast 517 595 36,900  Level FlightAware
Sun 09:38:16 35.3410 28.2110 116° Southeast 517 595 36,900  Level FlightAware
Sun 09:39:02 35.2910 28.3360 116° Southeast 518 596 36,900  Level FlightAware
Sun 09:39:44 35.2460 28.4470 116° Southeast 520 598 36,900  Level FlightAware
Sun 09:40:28 35.1990 28.5650 116° Southeast 521 600 36,900  Level FlightAware
Sun 09:41:09 35.1560 28.6680 117° Southeast 519 597 36,900  Level FlightAware
Sun 09:41:44 35.1190 28.7600 116° Southeast 520 598 36,900  Level FlightAware
Sun 09:42:40 35.0570 28.9120 116° Southeast 523 602 36,900  Level FlightAware
Sun 09:43:22 35.0180 29.0100 116° Southeast 523 602 36,900  Level FlightAware
Sun 09:44:07 34.9680 29.1330 116° Southeast 523 602 36,900  Level FlightAware
Sun 09:44:50 34.9180 29.2520 117° Southeast 36,900  Level FlightAware
Sun 09:46:34 34.8030 29.5280 117° Southeast 517 595 36,900  Level FlightAware
Sun 09:47:15 34.7600 29.6320 117° Southeast 516 594 36,900  Level FlightAware
Sun 09:48:10 34.7020 29.7710 117° Southeast 514 592 36,900  Level FlightAware
Sun 09:48:49 34.6600 29.8720 117° Southeast 510 587 36,900  Level FlightAware
Sun 09:49:28 34.6250 29.9570 117° Southeast 510 587 36,900  Level FlightAware
Sun 09:50:04 34.5940 30.0360 115° Southeast 510 587 36,900  Level FlightAware
Sun 09:50:50 34.5220 30.1790 121° Southeast 506 582 36,900  Level FlightAware
Sun 09:51:35 34.4690 30.2870 121° Southeast 501 577 36,900  Level FlightAware
Sun 09:52:14 34.4220 30.3850 120° Southeast 500 575 36,900  Level FlightAware
Sun 09:52:55 34.3760 30.4830 120° Southeast 501 577 36,900  Level FlightAware
Sun 09:53:39 34.3230 30.5930 120° Southeast 501 577 36,900  Level FlightAware
Sun 09:54:20 34.2740 30.6950 120° Southeast 502 578 36,900  Level FlightAware
Sun 09:55:09 34.2190 30.8090 120° Southeast 506 582 36,900  Level FlightAware
Sun 09:56:04 34.1530 30.9460 120° Southeast 508 585 36,900  Level FlightAware
Sun 09:56:42 34.1070 31.0390 121° Southeast 507 583 36,900  Level FlightAware
Sun 09:57:22 34.0600 31.1370 120° Southeast 507 583 36,900  Level FlightAware
Sun 09:58:02 34.0130 31.2330 121° Southeast 508 585 36,900  Level FlightAware
Sun 09:58:47 33.9590 31.3430 121° Southeast 507 583 36,900  Level FlightAware
Sun 09:59:29 33.9090 31.4440 121° Southeast 506 582 36,900  Level FlightAware
Sun 10:00:09 33.8610 31.5420 121° Southeast 505 581 36,900  Level FlightAware
Sun 10:00:53 33.8060 31.6530 121° Southeast 504 580 36,900  Level FlightAware
Sun 10:01:34 33.7590 31.7470 121° Southeast 504 580 36,900  Level FlightAware
Sun 10:02:15 33.7100 31.8450 121° Southeast 503 579 36,900  Level FlightAware
Sun 10:03:00 33.6550 31.9550 121° Southeast 503 579 36,900  Level FlightAware
Sun 10:03:41 33.6070 32.0510 121° Southeast 502 578 36,900  Level FlightAware
Sun 10:04:21 33.5580 32.1490 121° Southeast 502 578 36,900  Level FlightAware
Sun 10:05:07 33.5020 32.2600 121° Southeast 501 577 36,900  Level FlightAware
Sun 10:06:04 33.4400 32.3840 121° Southeast 501 577 36,900  Level FlightAware
Sun 10:06:44 33.3870 32.4870 122° Southeast 501 577 36,900 -450 Level FlightAware
Sun 10:07:24 33.3430 32.5730 121° Southeast 494 568 36,300 -1,071 Descending FlightAware
Sun 10:08:08 33.2860 32.6840 122° Southeast 489 563 35,400 -1,575 Descending FlightAware
Sun 10:08:44 33.2440 32.7650 122° Southeast 475 547 34,200 -2,132 Descending FlightAware
Sun 10:09:24 33.1990 32.8550 121° Southeast 468 539 32,700 -2,250 Descending FlightAware
Sun 10:10:20 33.1350 32.9770 122° Southeast 461 531 30,600 -1,657 Descending FlightAware
Sun 10:11:38 33.0540 33.1360 121° Southeast 447 514 29,000 -2,218 Descending FlightAware
Sun 10:12:19 33.0050 33.2280 122° Southeast 427 491 26,200 -3,722 Descending FlightAware
Sun 10:12:57 32.9650 33.3050 122° Southeast 440 506 24,100 -2,850 Descending FlightAware
Sun 10:13:39 32.9200 33.3910 122° Southeast 427 491 22,400 -2,231 Descending FlightAware
Sun 10:14:15 32.8860 33.4550 122° Southeast 415 478 21,200 -533 Descending FlightAware
Sun 10:15:54 32.8030 33.6200 123° Southeast 415 478 21,200 -1,135 Level FlightAware
Sun 10:16:00 32.7521 33.6963 123° Southeast  Level FlightAware
Sun 10:16:43 32.7400 33.7320 124° Southeast 372 428 18,400  Level FlightAware
Sun 10:17:31 32.6980 33.8130 122° Southeast 369 425 17,200 -1,416 Descending FlightAware
Sun 10:18:12 32.6600 33.8830 123° Southeast 368 423 16,300 -1,553 Descending FlightAware
Sun 10:18:56 32.6190 33.9610 122° Southeast 364 419 15,000 -1,692 Descending FlightAware
Sun 10:19:30 32.5880 34.0180 123° Southeast 358 412 14,100 -1,600 Descending FlightAware
Sun 10:20:11 32.5520 34.0860 122° Southeast 362 417 13,000 -1,556 Descending FlightAware
Sun 10:20:51 32.5160 34.1520 123° Southeast 355 409 12,000 -1,571 Descending FlightAware
Sun 10:21:35 32.4710 34.2160 130° Southeast 338 389 10,800 -1,113 Descending FlightAware
Sun 10:22:28 32.4190 34.2790 134° Southeast 330 380 10,200 -1,629 Descending FlightAware
Sun 10:22:45 32.3940 34.3060 138° Southeast 324 373 8,900 -1,714 Descending FlightAware
Sun 10:23:17 32.3680 34.3360 136° Southeast 323 372 8,800 -107 Descending FlightAware
Sun 10:23:41 32.3470 34.3620 134° Southeast 323 372 8,800  Level FlightAware
Sun 10:24:05 32.3250 34.3870 136° Southeast 323 372 8,800 -1,306 Level FlightAware
Sun 10:26:00 32.1534 34.6283 128° Southeast  Level FlightAware
Sun 10:26:01 32.2140 34.5390 128° Southeast 5,600  Level FlightAware
Sun 10:26:31 32.1900 34.5840 122° Southeast 271 312 5,100 -556 Descending FlightAware
Sun 10:26:55 32.1770 34.6080 123° Southeast 273 314 5,100  Level FlightAware
Sun 10:27:13 32.1620 34.6370 121° Southeast 272 313 5,100  Level FlightAware
Sun 10:27:37 32.1470 34.6630 124° Southeast 271 312 5,100  Level FlightAware
Sun 10:28:06 32.1250 34.7020 124° Southeast 271 312 5,100  Level FlightAware
Sun 10:28:34 32.1070 34.7350 123° Southeast 269 310 5,100  Level FlightAware
Sun 10:28:52 32.0950 34.7560 124° Southeast 263 303 5,100  Level FlightAware
Sun 10:29:10 32.0820 34.7790 124° Southeast 252 290 5,100 -197 Level FlightAware
Sun 10:29:53 32.0490 34.8200 134° Southeast 228 262 4,900 -364 Descending FlightAware
Sun 10:30:16 32.0320 34.8380 138° Southeast 229 264 4,700 -462 Descending FlightAware
Sun 10:30:32 32.0190 34.8530 136° Southeast 229 264 4,600 -894 Descending FlightAware
Sun 10:31:03 31.9980 34.8760 137° Southeast 227 261 4,000 -1,527 Descending FlightAware
Sun 10:31:27 31.9860 34.9030 118° Southeast 219 252 3,200 -1,333 Descending FlightAware
Sun 10:31:57 31.9910 34.9340 79° East 189 217 2,800 -875 Descending FlightAware
Sun 10:32:15 31.9940 34.9520 79° East 179 206 2,500 -889 Descending FlightAware
Sun 10:32:24 31.9960 34.9570 65° Northeast 179 206 2,400 -167 Descending FlightAware
Sun 10:32:51 32.0010 34.9790 75° East 179 206 2,400  Level FlightAware
Sun 10:35:00 32.0095 34.8769 276° West  Level Estimated
Sun 10:36:00 32.0095 34.8769 270° West  Level Estimated

Login

Don't have an account? Register now (free) for customized features, flight alerts, and more!